Terminal Aerodrome Forecast
Issued by NWS

Home | Current Version | Previous Version | Text Only | Print | Product List | Glossary On
Versions: 1 2 3 4 5 6 7 8 9 10 11 12 13 14 15 16 17 18 19 20 21 22 23 24
622
FTUS41 KCAR 231956 AAA
TAFFVE
TAF AMD
KFVE 231956Z 2320/2418 27007G15KT P6SM BKN030
     FM232200 23004KT P6SM SCT030
     FM240400 24007KT P6SM BKN035
     FM241200 30006KT P6SM SCT020 BKN035
     FM241300 29006KT P6SM SCT050
     FM241600 25004KT P6SM VCSH SCT030=

USA.gov is the U.S. government's official web portal to all federal, state and local government web resources and services.